sensor_id;sensor_type;location;lat;lon;timestamp;temperature;humidity
20498;DHT22;10407;53.238;10.448;2022-11-20T00:01:22;2.60;99.90
20498;DHT22;10407;53.238;10.448;2022-11-20T00:03:52;2.50;99.90
20498;DHT22;10407;53.238;10.448;2022-11-20T00:06:20;2.60;99.90
20498;DHT22;10407;53.238;10.448;2022-11-20T00:08:49;2.50;99.90
20498;DHT22;10407;53.238;10.448;2022-11-20T00:11:19;2.50;99.90
20498;DHT22;10407;53.238;10.448;2022-11-20T00:13:48;2.50;99.90
20498;DHT22;10407;53.238;10.448;2022-11-20T00:16:18;2.60;99.90
20498;DHT22;10407;53.238;10.448;2022-11-20T00:18:47;2.50;99.90
20498;DHT22;10407;53.238;10.448;2022-11-20T00:21:19;2.60;99.90
20498;DHT22;10407;53.238;10.448;2022-11-20T00:23:48;2.50;99.90
20498;DHT22;10407;53.238;10.448;2022-11-20T00:26:18;2.60;99.90
20498;DHT22;10407;53.238;10.448;2022-11-20T00:28:55;2.50;99.90
20498;DHT22;10407;53.238;10.448;2022-11-20T00:31:23;2.50;99.90
20498;DHT22;10407;53.238;10.448;2022-11-20T00:33:52;2.50;99.90
20498;DHT22;10407;53.238;10.448;2022-11-20T00:36:21;2.60;99.90
20498;DHT22;10407;53.238;10.448;2022-11-20T00:38:54;2.50;99.90
20498;DHT22;10407;53.238;10.448;2022-11-20T00:41:22;2.50;99.90
20498;DHT22;10407;53.238;10.448;2022-11-20T00:43:52;2.40;99.90
20498;DHT22;10407;53.238;10.448;2022-11-20T00:46:22;2.50;99.90
20498;DHT22;10407;53.238;10.448;2022-11-20T00:48:50;2.50;99.90
20498;DHT22;10407;53.238;10.448;2022-11-20T00:51:20;2.50;99.90
20498;DHT22;10407;53.238;10.448;2022-11-20T00:53:48;2.50;99.90
20498;DHT22;10407;53.238;10.448;2022-11-20T00:56:17;2.50;99.90
20498;DHT22;10407;53.238;10.448;2022-11-20T00:58:46;2.50;99.90
20498;DHT22;10407;53.238;10.448;2022-11-20T01:01:19;2.40;99.90
20498;DHT22;10407;53.238;10.448;2022-11-20T01:03:49;2.40;99.90
20498;DHT22;10407;53.238;10.448;2022-11-20T01:06:32;2.40;99.90
20498;DHT22;10407;53.238;10.448;2022-11-20T01:09:02;2.40;99.90
20498;DHT22;10407;53.238;10.448;2022-11-20T01:11:32;2.40;99.90
20498;DHT22;10407;53.238;10.448;2022-11-20T01:14:03;2.40;99.90
20498;DHT22;10407;53.238;10.448;2022-11-20T01:16:33;2.40;99.90
20498;DHT22;10407;53.238;10.448;2022-11-20T01:19:03;2.40;99.90
20498;DHT22;10407;53.238;10.448;2022-11-20T01:21:34;2.50;99.90
20498;DHT22;10407;53.238;10.448;2022-11-20T01:24:03;2.50;99.90
20498;DHT22;10407;53.238;10.448;2022-11-20T01:26:33;2.50;99.90
20498;DHT22;10407;53.238;10.448;2022-11-20T01:29:02;2.40;99.90
20498;DHT22;10407;53.238;10.448;2022-11-20T01:31:32;2.40;99.90
20498;DHT22;10407;53.238;10.448;2022-11-20T01:34:03;2.50;99.90
20498;DHT22;10407;53.238;10.448;2022-11-20T01:36:32;2.40;99.90
20498;DHT22;10407;53.238;10.448;2022-11-20T01:39:07;2.40;99.90
20498;DHT22;10407;53.238;10.448;2022-11-20T01:41:33;2.40;99.90
20498;DHT22;10407;53.238;10.448;2022-11-20T01:44:22;2.40;99.90
20498;DHT22;10407;53.238;10.448;2022-11-20T01:47:04;2.40;99.90
20498;DHT22;10407;53.238;10.448;2022-11-20T01:49:39;2.40;99.90
20498;DHT22;10407;53.238;10.448;2022-11-20T01:52:16;2.40;99.90
20498;DHT22;10407;53.238;10.448;2022-11-20T01:54:51;2.30;99.90
20498;DHT22;10407;53.238;10.448;2022-11-20T01:57:19;2.40;99.90
20498;DHT22;10407;53.238;10.448;2022-11-20T01:59:54;2.30;99.90
20498;DHT22;10407;53.238;10.448;2022-11-20T02:02:21;2.20;99.90
20498;DHT22;10407;53.238;10.448;2022-11-20T02:04:51;2.30;99.90
20498;DHT22;10407;53.238;10.448;2022-11-20T02:07:19;2.30;99.90
20498;DHT22;10407;53.238;10.448;2022-11-20T02:09:47;2.20;99.90
20498;DHT22;10407;53.238;10.448;2022-11-20T02:12:15;2.20;99.90
20498;DHT22;10407;53.238;10.448;2022-11-20T02:15:01;2.20;99.90
20498;DHT22;10407;53.238;10.448;2022-11-20T02:17:28;2.10;99.90
20498;DHT22;10407;53.238;10.448;2022-11-20T02:19:56;2.10;99.90
20498;DHT22;10407;53.238;10.448;2022-11-20T02:22:33;2.00;99.90
20498;DHT22;10407;53.238;10.448;2022-11-20T02:25:01;1.90;99.90
20498;DHT22;10407;53.238;10.448;2022-11-20T02:27:30;1.90;99.90
20498;DHT22;10407;53.238;10.448;2022-11-20T02:30:03;1.80;99.90
20498;DHT22;10407;53.238;10.448;2022-11-20T02:32:37;1.60;99.90
20498;DHT22;10407;53.238;10.448;2022-11-20T02:37:49;1.70;99.90
20498;DHT22;10407;53.238;10.448;2022-11-20T02:40:18;1.70;99.90
20498;DHT22;10407;53.238;10.448;2022-11-20T02:42:45;1.60;99.90
20498;DHT22;10407;53.238;10.448;2022-11-20T02:45:13;1.50;99.90
20498;DHT22;10407;53.238;10.448;2022-11-20T02:47:40;1.50;99.90
20498;DHT22;10407;53.238;10.448;2022-11-20T02:50:08;1.40;99.90
20498;DHT22;10407;53.238;10.448;2022-11-20T02:52:36;1.20;99.90
20498;DHT22;10407;53.238;10.448;2022-11-20T02:55:04;1.20;99.90
20498;DHT22;10407;53.238;10.448;2022-11-20T02:57:31;1.20;99.90
20498;DHT22;10407;53.238;10.448;2022-11-20T02:59:59;1.20;99.90
20498;DHT22;10407;53.238;10.448;2022-11-20T03:02:31;1.30;99.90
20498;DHT22;10407;53.238;10.448;2022-11-20T03:04:58;1.40;99.90
20498;DHT22;10407;53.238;10.448;2022-11-20T03:07:26;1.50;99.90
20498;DHT22;10407;53.238;10.448;2022-11-20T03:09:54;1.50;99.90
20498;DHT22;10407;53.238;10.448;2022-11-20T03:12:21;1.40;99.90
20498;DHT22;10407;53.238;10.448;2022-11-20T03:14:49;1.30;99.90
20498;DHT22;10407;53.238;10.448;2022-11-20T03:17:16;1.40;99.90
20498;DHT22;10407;53.238;10.448;2022-11-20T03:19:44;1.50;99.90
20498;DHT22;10407;53.238;10.448;2022-11-20T03:22:11;1.50;99.90
20498;DHT22;10407;53.238;10.448;2022-11-20T03:24:39;1.70;99.90
20498;DHT22;10407;53.238;10.448;2022-11-20T03:27:06;1.70;99.90
20498;DHT22;10407;53.238;10.448;2022-11-20T03:29:35;1.80;99.90
20498;DHT22;10407;53.238;10.448;2022-11-20T03:32:03;1.80;99.90
20498;DHT22;10407;53.238;10.448;2022-11-20T03:34:30;1.80;99.90
20498;DHT22;10407;53.238;10.448;2022-11-20T03:36:58;1.90;99.90
20498;DHT22;10407;53.238;10.448;2022-11-20T03:39:25;1.90;99.90
20498;DHT22;10407;53.238;10.448;2022-11-20T03:41:53;1.80;99.90
20498;DHT22;10407;53.238;10.448;2022-11-20T03:44:22;1.90;99.90
20498;DHT22;10407;53.238;10.448;2022-11-20T03:46:49;2.00;99.90
20498;DHT22;10407;53.238;10.448;2022-11-20T03:49:17;2.00;99.90
20498;DHT22;10407;53.238;10.448;2022-11-20T03:51:44;2.00;99.90
20498;DHT22;10407;53.238;10.448;2022-11-20T03:54:12;2.00;99.90
20498;DHT22;10407;53.238;10.448;2022-11-20T03:56:39;1.90;99.90
20498;DHT22;10407;53.238;10.448;2022-11-20T03:59:09;2.00;99.90
20498;DHT22;10407;53.238;10.448;2022-11-20T04:01:36;2.10;99.90
20498;DHT22;10407;53.238;10.448;2022-11-20T04:04:04;2.00;99.90
20498;DHT22;10407;53.238;10.448;2022-11-20T04:06:37;2.00;99.90
20498;DHT22;10407;53.238;10.448;2022-11-20T04:09:05;1.80;99.90
20498;DHT22;10407;53.238;10.448;2022-11-20T04:11:35;1.90;99.90
20498;DHT22;10407;53.238;10.448;2022-11-20T04:14:06;1.90;99.90
20498;DHT22;10407;53.238;10.448;2022-11-20T04:16:35;1.60;99.90
20498;DHT22;10407;53.238;10.448;2022-11-20T04:19:06;1.50;99.90
20498;DHT22;10407;53.238;10.448;2022-11-20T04:21:33;1.70;99.90
20498;DHT22;10407;53.238;10.448;2022-11-20T04:24:02;1.80;99.90
20498;DHT22;10407;53.238;10.448;2022-11-20T04:26:30;1.90;99.90
20498;DHT22;10407;53.238;10.448;2022-11-20T04:28:59;1.90;99.90
20498;DHT22;10407;53.238;10.448;2022-11-20T04:31:31;1.90;99.90
20498;DHT22;10407;53.238;10.448;2022-11-20T04:34:04;2.00;99.90
20498;DHT22;10407;53.238;10.448;2022-11-20T04:36:32;2.10;99.90
20498;DHT22;10407;53.238;10.448;2022-11-20T04:39:03;2.10;99.90
20498;DHT22;10407;53.238;10.448;2022-11-20T04:41:33;2.10;99.90
20498;DHT22;10407;53.238;10.448;2022-11-20T04:44:02;2.10;99.90
20498;DHT22;10407;53.238;10.448;2022-11-20T04:46:35;2.00;99.90
20498;DHT22;10407;53.238;10.448;2022-11-20T04:49:04;2.00;99.90
20498;DHT22;10407;53.238;10.448;2022-11-20T04:51:32;2.10;99.90
20498;DHT22;10407;53.238;10.448;2022-11-20T04:54:00;2.00;99.90
20498;DHT22;10407;53.238;10.448;2022-11-20T04:56:27;2.10;99.90
20498;DHT22;10407;53.238;10.448;2022-11-20T04:58:55;2.00;99.90
20498;DHT22;10407;53.238;10.448;2022-11-20T05:01:24;1.90;99.90
20498;DHT22;10407;53.238;10.448;2022-11-20T05:03:52;2.10;99.90
20498;DHT22;10407;53.238;10.448;2022-11-20T05:06:20;2.00;99.90
20498;DHT22;10407;53.238;10.448;2022-11-20T05:08:48;2.10;99.90
20498;DHT22;10407;53.238;10.448;2022-11-20T05:11:19;2.10;99.90
20498;DHT22;10407;53.238;10.448;2022-11-20T05:13:47;2.10;99.90
20498;DHT22;10407;53.238;10.448;2022-11-20T05:16:18;2.00;99.90
20498;DHT22;10407;53.238;10.448;2022-11-20T05:18:46;1.90;99.90
20498;DHT22;10407;53.238;10.448;2022-11-20T05:21:13;1.90;99.90
20498;DHT22;10407;53.238;10.448;2022-11-20T05:23:42;1.90;99.90
20498;DHT22;10407;53.238;10.448;2022-11-20T05:26:15;1.90;99.90
20498;DHT22;10407;53.238;10.448;2022-11-20T05:28:43;2.00;99.90
20498;DHT22;10407;53.238;10.448;2022-11-20T05:31:14;2.10;99.90
20498;DHT22;10407;53.238;10.448;2022-11-20T05:33:43;2.10;99.90
20498;DHT22;10407;53.238;10.448;2022-11-20T05:36:13;2.00;99.90
20498;DHT22;10407;53.238;10.448;2022-11-20T05:38:42;2.10;99.90
20498;DHT22;10407;53.238;10.448;2022-11-20T05:41:12;2.00;99.90
20498;DHT22;10407;53.238;10.448;2022-11-20T05:43:41;2.10;99.90
20498;DHT22;10407;53.238;10.448;2022-11-20T05:46:12;2.20;99.90
20498;DHT22;10407;53.238;10.448;2022-11-20T05:48:41;2.20;99.90
20498;DHT22;10407;53.238;10.448;2022-11-20T05:51:10;2.20;99.90
20498;DHT22;10407;53.238;10.448;2022-11-20T05:53:38;2.20;99.90
20498;DHT22;10407;53.238;10.448;2022-11-20T05:56:09;2.20;99.90
20498;DHT22;10407;53.238;10.448;2022-11-20T05:58:39;2.10;99.90
20498;DHT22;10407;53.238;10.448;2022-11-20T06:01:22;2.10;99.90
20498;DHT22;10407;53.238;10.448;2022-11-20T06:03:50;2.00;99.90
20498;DHT22;10407;53.238;10.448;2022-11-20T06:06:18;1.90;99.90
20498;DHT22;10407;53.238;10.448;2022-11-20T06:08:46;1.80;99.90
20498;DHT22;10407;53.238;10.448;2022-11-20T06:11:15;2.00;99.90
20498;DHT22;10407;53.238;10.448;2022-11-20T06:13:43;2.00;99.90
20498;DHT22;10407;53.238;10.448;2022-11-20T06:16:14;2.10;99.90
20498;DHT22;10407;53.238;10.448;2022-11-20T06:18:42;2.00;99.90
20498;DHT22;10407;53.238;10.448;2022-11-20T06:21:12;2.00;99.90
20498;DHT22;10407;53.238;10.448;2022-11-20T06:23:40;2.00;99.90
20498;DHT22;10407;53.238;10.448;2022-11-20T06:26:17;2.10;99.90
20498;DHT22;10407;53.238;10.448;2022-11-20T06:28:44;2.10;99.90
20498;DHT22;10407;53.238;10.448;2022-11-20T06:31:13;2.00;99.90
20498;DHT22;10407;53.238;10.448;2022-11-20T06:33:42;2.00;99.90
20498;DHT22;10407;53.238;10.448;2022-11-20T06:36:12;2.10;99.90
20498;DHT22;10407;53.238;10.448;2022-11-20T06:38:40;2.10;99.90
20498;DHT22;10407;53.238;10.448;2022-11-20T06:41:13;2.10;99.90
20498;DHT22;10407;53.238;10.448;2022-11-20T06:43:42;2.00;99.90
20498;DHT22;10407;53.238;10.448;2022-11-20T06:46:11;1.90;99.90
20498;DHT22;10407;53.238;10.448;2022-11-20T06:48:39;1.80;99.90
20498;DHT22;10407;53.238;10.448;2022-11-20T06:51:08;1.80;99.90
20498;DHT22;10407;53.238;10.448;2022-11-20T06:53:36;1.80;99.90
20498;DHT22;10407;53.238;10.448;2022-11-20T06:56:04;1.90;99.90
20498;DHT22;10407;53.238;10.448;2022-11-20T06:58:34;2.00;99.90
20498;DHT22;10407;53.238;10.448;2022-11-20T07:01:07;2.10;99.90
20498;DHT22;10407;53.238;10.448;2022-11-20T07:03:35;2.00;99.90
20498;DHT22;10407;53.238;10.448;2022-11-20T07:06:04;2.10;99.90
20498;DHT22;10407;53.238;10.448;2022-11-20T07:08:32;1.80;99.90
20498;DHT22;10407;53.238;10.448;2022-11-20T07:11:02;1.90;99.90
20498;DHT22;10407;53.238;10.448;2022-11-20T07:13:29;1.80;99.90
20498;DHT22;10407;53.238;10.448;2022-11-20T07:16:06;2.00;99.90
20498;DHT22;10407;53.238;10.448;2022-11-20T07:18:34;2.00;99.90
20498;DHT22;10407;53.238;10.448;2022-11-20T07:21:04;2.10;99.90
20498;DHT22;10407;53.238;10.448;2022-11-20T07:23:32;2.10;99.90
20498;DHT22;10407;53.238;10.448;2022-11-20T07:26:08;2.20;99.90
20498;DHT22;10407;53.238;10.448;2022-11-20T07:28:36;2.20;99.90
20498;DHT22;10407;53.238;10.448;2022-11-20T07:31:04;2.20;99.90
20498;DHT22;10407;53.238;10.448;2022-11-20T07:33:33;2.20;99.90
20498;DHT22;10407;53.238;10.448;2022-11-20T07:36:00;2.30;99.90
20498;DHT22;10407;53.238;10.448;2022-11-20T07:38:28;2.20;99.90
20498;DHT22;10407;53.238;10.448;2022-11-20T07:40:57;2.30;99.90
20498;DHT22;10407;53.238;10.448;2022-11-20T07:43:26;2.30;99.90
20498;DHT22;10407;53.238;10.448;2022-11-20T07:45:57;2.30;99.90
20498;DHT22;10407;53.238;10.448;2022-11-20T07:48:25;2.30;99.90
20498;DHT22;10407;53.238;10.448;2022-11-20T07:50:56;2.40;99.90
20498;DHT22;10407;53.238;10.448;2022-11-20T07:53:24;2.30;99.90
20498;DHT22;10407;53.238;10.448;2022-11-20T07:55:52;2.30;99.90
20498;DHT22;10407;53.238;10.448;2022-11-20T07:58:20;2.40;99.90
20498;DHT22;10407;53.238;10.448;2022-11-20T08:00:48;2.50;99.90
20498;DHT22;10407;53.238;10.448;2022-11-20T08:03:16;2.20;99.90
20498;DHT22;10407;53.238;10.448;2022-11-20T08:05:43;2.40;99.90
20498;DHT22;10407;53.238;10.448;2022-11-20T08:08:11;2.50;99.90
20498;DHT22;10407;53.238;10.448;2022-11-20T08:10:38;2.60;99.90
20498;DHT22;10407;53.238;10.448;2022-11-20T08:13:06;2.60;99.90
20498;DHT22;10407;53.238;10.448;2022-11-20T08:15:51;2.80;99.90
20498;DHT22;10407;53.238;10.448;2022-11-20T08:18:19;2.80;99.90
20498;DHT22;10407;53.238;10.448;2022-11-20T08:20:46;2.90;99.90
20498;DHT22;10407;53.238;10.448;2022-11-20T08:23:14;3.00;99.90
20498;DHT22;10407;53.238;10.448;2022-11-20T08:25:41;3.00;99.90
20498;DHT22;10407;53.238;10.448;2022-11-20T08:28:10;3.10;99.90
20498;DHT22;10407;53.238;10.448;2022-11-20T08:30:37;3.20;99.90
20498;DHT22;10407;53.238;10.448;2022-11-20T08:33:07;3.30;99.90
20498;DHT22;10407;53.238;10.448;2022-11-20T08:35:36;3.40;99.90
20498;DHT22;10407;53.238;10.448;2022-11-20T08:38:05;3.90;99.90
20498;DHT22;10407;53.238;10.448;2022-11-20T08:40:33;4.20;99.90
20498;DHT22;10407;53.238;10.448;2022-11-20T08:43:01;4.50;99.90
20498;DHT22;10407;53.238;10.448;2022-11-20T08:45:28;4.80;99.90
20498;DHT22;10407;53.238;10.448;2022-11-20T08:48:00;5.10;99.90
20498;DHT22;10407;53.238;10.448;2022-11-20T08:50:28;5.00;99.90
20498;DHT22;10407;53.238;10.448;2022-11-20T08:53:05;4.70;99.90
20498;DHT22;10407;53.238;10.448;2022-11-20T08:55:33;4.40;99.90
20498;DHT22;10407;53.238;10.448;2022-11-20T08:58:04;4.20;99.90
20498;DHT22;10407;53.238;10.448;2022-11-20T09:00:32;4.10;99.90
20498;DHT22;10407;53.238;10.448;2022-11-20T09:03:00;4.00;99.90
20498;DHT22;10407;53.238;10.448;2022-11-20T09:05:28;4.10;99.90
20498;DHT22;10407;53.238;10.448;2022-11-20T09:07:59;4.20;99.90
20498;DHT22;10407;53.238;10.448;2022-11-20T09:10:27;4.30;99.90
20498;DHT22;10407;53.238;10.448;2022-11-20T09:12:55;4.80;99.90
20498;DHT22;10407;53.238;10.448;2022-11-20T09:15:23;5.40;99.90
20498;DHT22;10407;53.238;10.448;2022-11-20T09:17:59;5.60;99.90
20498;DHT22;10407;53.238;10.448;2022-11-20T09:20:28;5.30;99.90
20498;DHT22;10407;53.238;10.448;2022-11-20T09:22:56;5.00;99.90
20498;DHT22;10407;53.238;10.448;2022-11-20T09:25:24;4.90;99.90
20498;DHT22;10407;53.238;10.448;2022-11-20T09:27:56;4.70;99.90
20498;DHT22;10407;53.238;10.448;2022-11-20T09:30:25;4.50;99.90
20498;DHT22;10407;53.238;10.448;2022-11-20T09:32:52;4.40;99.90
20498;DHT22;10407;53.238;10.448;2022-11-20T09:35:20;4.40;99.90
20498;DHT22;10407;53.238;10.448;2022-11-20T09:37:47;4.40;99.90
20498;DHT22;10407;53.238;10.448;2022-11-20T09:40:28;4.30;99.90
20498;DHT22;10407;53.238;10.448;2022-11-20T09:43:07;4.30;99.90
20498;DHT22;10407;53.238;10.448;2022-11-20T09:46:26;4.30;99.90
20498;DHT22;10407;53.238;10.448;2022-11-20T09:56:26;4.10;99.90
20498;DHT22;10407;53.238;10.448;2022-11-20T09:58:55;4.20;99.90
20498;DHT22;10407;53.238;10.448;2022-11-20T10:01:32;4.30;99.90
20498;DHT22;10407;53.238;10.448;2022-11-20T10:04:08;4.40;99.90
20498;DHT22;10407;53.238;10.448;2022-11-20T10:06:47;4.70;99.90
20498;DHT22;10407;53.238;10.448;2022-11-20T10:09:20;4.80;99.90
20498;DHT22;10407;53.238;10.448;2022-11-20T10:11:52;5.20;99.90
20498;DHT22;10407;53.238;10.448;2022-11-20T10:17:23;5.60;99.90
20498;DHT22;10407;53.238;10.448;2022-11-20T10:20:11;5.50;99.90
20498;DHT22;10407;53.238;10.448;2022-11-20T10:25:47;5.60;99.90
20498;DHT22;10407;53.238;10.448;2022-11-20T10:31:04;5.40;99.90
20498;DHT22;10407;53.238;10.448;2022-11-20T10:33:39;5.30;99.90
20498;DHT22;10407;53.238;10.448;2022-11-20T10:36:17;5.20;99.90
20498;DHT22;10407;53.238;10.448;2022-11-20T10:41:32;5.00;99.90
20498;DHT22;10407;53.238;10.448;2022-11-20T10:44:12;5.00;99.90
20498;DHT22;10407;53.238;10.448;2022-11-20T10:46:43;4.90;99.90
20498;DHT22;10407;53.238;10.448;2022-11-20T10:49:16;4.90;99.90
20498;DHT22;10407;53.238;10.448;2022-11-20T10:51:53;4.80;99.90
20498;DHT22;10407;53.238;10.448;2022-11-20T10:54:22;5.10;99.90
20498;DHT22;10407;53.238;10.448;2022-11-20T10:56:53;5.40;99.90
20498;DHT22;10407;53.238;10.448;2022-11-20T11:05:14;5.70;99.90
20498;DHT22;10407;53.238;10.448;2022-11-20T11:07:38;5.40;99.90
20498;DHT22;10407;53.238;10.448;2022-11-20T11:10:24;5.40;99.90
20498;DHT22;10407;53.238;10.448;2022-11-20T11:12:49;5.50;99.90
20498;DHT22;10407;53.238;10.448;2022-11-20T11:15:38;5.50;99.90
20498;DHT22;10407;53.238;10.448;2022-11-20T11:18:08;5.70;99.90
20498;DHT22;10407;53.238;10.448;2022-11-20T11:20:37;5.70;99.90
20498;DHT22;10407;53.238;10.448;2022-11-20T11:23:05;5.60;99.90
20498;DHT22;10407;53.238;10.448;2022-11-20T11:25:35;5.60;99.90
20498;DHT22;10407;53.238;10.448;2022-11-20T11:28:05;5.60;99.90
20498;DHT22;10407;53.238;10.448;2022-11-20T11:30:44;5.60;99.90
20498;DHT22;10407;53.238;10.448;2022-11-20T11:33:29;5.70;99.90
20498;DHT22;10407;53.238;10.448;2022-11-20T11:36:03;6.10;99.90
20498;DHT22;10407;53.238;10.448;2022-11-20T11:38:36;6.30;99.90
20498;DHT22;10407;53.238;10.448;2022-11-20T11:41:06;6.20;99.90
20498;DHT22;10407;53.238;10.448;2022-11-20T11:43:36;5.80;99.90
20498;DHT22;10407;53.238;10.448;2022-11-20T11:46:32;5.80;99.90
20498;DHT22;10407;53.238;10.448;2022-11-20T11:52:09;5.20;99.90
20498;DHT22;10407;53.238;10.448;2022-11-20T11:54:55;5.20;99.90
20498;DHT22;10407;53.238;10.448;2022-11-20T11:57:29;5.10;99.90
20498;DHT22;10407;53.238;10.448;2022-11-20T12:00:03;5.10;99.90
20498;DHT22;10407;53.238;10.448;2022-11-20T12:02:36;5.00;99.90
20498;DHT22;10407;53.238;10.448;2022-11-20T12:05:18;4.90;99.90
20498;DHT22;10407;53.238;10.448;2022-11-20T12:13:44;4.90;99.90
20498;DHT22;10407;53.238;10.448;2022-11-20T12:16:13;5.00;99.90
20498;DHT22;10407;53.238;10.448;2022-11-20T12:18:42;5.10;99.90
20498;DHT22;10407;53.238;10.448;2022-11-20T12:26:35;5.70;99.90
20498;DHT22;10407;53.238;10.448;2022-11-20T12:36:52;5.50;99.90
20498;DHT22;10407;53.238;10.448;2022-11-20T12:39:35;5.40;99.90
20498;DHT22;10407;53.238;10.448;2022-11-20T12:42:36;5.10;99.90
20498;DHT22;10407;53.238;10.448;2022-11-20T12:48:21;4.90;99.90
20498;DHT22;10407;53.238;10.448;2022-11-20T12:51:13;4.70;99.90
20498;DHT22;10407;53.238;10.448;2022-11-20T13:07:35;4.10;99.90
20498;DHT22;10407;53.238;10.448;2022-11-20T13:10:03;4.10;99.90
20498;DHT22;10407;53.238;10.448;2022-11-20T13:12:39;4.20;99.90
20498;DHT22;10407;53.238;10.448;2022-11-20T13:15:26;3.80;99.90
20498;DHT22;10407;53.238;10.448;2022-11-20T13:18:00;3.80;99.90
20498;DHT22;10407;53.238;10.448;2022-11-20T13:20:25;4.10;99.90
20498;DHT22;10407;53.238;10.448;2022-11-20T13:22:54;4.10;99.90
20498;DHT22;10407;53.238;10.448;2022-11-20T13:25:34;4.10;99.90
20498;DHT22;10407;53.238;10.448;2022-11-20T13:30:49;3.90;99.90
20498;DHT22;10407;53.238;10.448;2022-11-20T13:33:27;4.00;99.90
20498;DHT22;10407;53.238;10.448;2022-11-20T13:36:21;4.10;99.90
20498;DHT22;10407;53.238;10.448;2022-11-20T13:38:48;4.10;99.90
20498;DHT22;10407;53.238;10.448;2022-11-20T13:41:28;4.20;99.90
20498;DHT22;10407;53.238;10.448;2022-11-20T13:44:29;4.10;99.90
20498;DHT22;10407;53.238;10.448;2022-11-20T13:46:45;4.10;99.90
20498;DHT22;10407;53.238;10.448;2022-11-20T13:49:29;4.20;99.90
20498;DHT22;10407;53.238;10.448;2022-11-20T13:52:18;4.20;99.90
20498;DHT22;10407;53.238;10.448;2022-11-20T13:57:23;4.20;99.90
20498;DHT22;10407;53.238;10.448;2022-11-20T13:59:58;4.20;99.90
20498;DHT22;10407;53.238;10.448;2022-11-20T14:02:27;4.10;99.90
20498;DHT22;10407;53.238;10.448;2022-11-20T14:04:58;3.80;99.90
20498;DHT22;10407;53.238;10.448;2022-11-20T14:07:39;3.80;99.90
20498;DHT22;10407;53.238;10.448;2022-11-20T14:10:04;3.80;99.90
20498;DHT22;10407;53.238;10.448;2022-11-20T14:12:33;3.90;99.90
20498;DHT22;10407;53.238;10.448;2022-11-20T14:15:03;3.80;99.90
20498;DHT22;10407;53.238;10.448;2022-11-20T14:17:35;3.80;99.90
20498;DHT22;10407;53.238;10.448;2022-11-20T14:20:07;3.80;99.90
20498;DHT22;10407;53.238;10.448;2022-11-20T14:22:35;3.80;99.90
20498;DHT22;10407;53.238;10.448;2022-11-20T14:27:47;3.70;99.90
20498;DHT22;10407;53.238;10.448;2022-11-20T14:30:20;3.50;99.90
20498;DHT22;10407;53.238;10.448;2022-11-20T14:32:44;3.50;99.90
20498;DHT22;10407;53.238;10.448;2022-11-20T14:35:34;3.40;99.90
20498;DHT22;10407;53.238;10.448;2022-11-20T14:38:01;3.30;99.90
20498;DHT22;10407;53.238;10.448;2022-11-20T14:40:32;3.20;99.90
20498;DHT22;10407;53.238;10.448;2022-11-20T14:43:22;3.10;99.90
20498;DHT22;10407;53.238;10.448;2022-11-20T14:46:01;3.10;99.90
20498;DHT22;10407;53.238;10.448;2022-11-20T14:49:07;3.10;99.90
20498;DHT22;10407;53.238;10.448;2022-11-20T14:51:22;3.10;99.90
20498;DHT22;10407;53.238;10.448;2022-11-20T14:53:40;2.90;99.90
20498;DHT22;10407;53.238;10.448;2022-11-20T14:56:08;3.00;99.90
20498;DHT22;10407;53.238;10.448;2022-11-20T14:58:36;3.20;99.90
20498;DHT22;10407;53.238;10.448;2022-11-20T15:01:06;3.30;99.90
20498;DHT22;10407;53.238;10.448;2022-11-20T15:03:38;3.40;99.90
20498;DHT22;10407;53.238;10.448;2022-11-20T15:06:10;3.50;99.90
20498;DHT22;10407;53.238;10.448;2022-11-20T15:08:37;3.60;99.90
20498;DHT22;10407;53.238;10.448;2022-11-20T15:11:16;3.50;99.90
20498;DHT22;10407;53.238;10.448;2022-11-20T15:13:37;3.50;99.90
20498;DHT22;10407;53.238;10.448;2022-11-20T15:16:16;3.40;99.90
20498;DHT22;10407;53.238;10.448;2022-11-20T15:18:40;3.30;99.90
20498;DHT22;10407;53.238;10.448;2022-11-20T15:21:16;3.30;99.90
20498;DHT22;10407;53.238;10.448;2022-11-20T15:23:44;3.20;99.90
20498;DHT22;10407;53.238;10.448;2022-11-20T15:26:31;3.10;99.90
20498;DHT22;10407;53.238;10.448;2022-11-20T15:29:00;3.10;99.90
20498;DHT22;10407;53.238;10.448;2022-11-20T15:31:27;2.70;99.90
20498;DHT22;10407;53.238;10.448;2022-11-20T15:33:55;2.80;99.90
20498;DHT22;10407;53.238;10.448;2022-11-20T15:36:22;2.80;99.90
20498;DHT22;10407;53.238;10.448;2022-11-20T15:38:50;2.80;99.90
20498;DHT22;10407;53.238;10.448;2022-11-20T15:41:17;2.80;99.90
20498;DHT22;10407;53.238;10.448;2022-11-20T15:43:45;2.80;99.90
20498;DHT22;10407;53.238;10.448;2022-11-20T15:46:18;2.70;99.90
20498;DHT22;10407;53.238;10.448;2022-11-20T15:48:53;2.70;99.90
20498;DHT22;10407;53.238;10.448;2022-11-20T15:51:28;2.50;99.90
20498;DHT22;10407;53.238;10.448;2022-11-20T15:53:56;2.60;99.90
20498;DHT22;10407;53.238;10.448;2022-11-20T15:56:25;2.30;99.90
20498;DHT22;10407;53.238;10.448;2022-11-20T15:58:53;2.40;99.90
20498;DHT22;10407;53.238;10.448;2022-11-20T16:01:22;2.60;99.90
20498;DHT22;10407;53.238;10.448;2022-11-20T16:03:50;2.50;99.90
20498;DHT22;10407;53.238;10.448;2022-11-20T16:06:17;2.50;99.90
20498;DHT22;10407;53.238;10.448;2022-11-20T16:08:45;2.60;99.90
20498;DHT22;10407;53.238;10.448;2022-11-20T16:11:13;2.60;99.90
20498;DHT22;10407;53.238;10.448;2022-11-20T16:13:42;2.60;99.90
20498;DHT22;10407;53.238;10.448;2022-11-20T16:16:33;2.70;99.90
20498;DHT22;10407;53.238;10.448;2022-11-20T16:18:58;2.70;99.90
20498;DHT22;10407;53.238;10.448;2022-11-20T16:21:27;2.60;99.90
20498;DHT22;10407;53.238;10.448;2022-11-20T16:23:58;2.30;99.90
20498;DHT22;10407;53.238;10.448;2022-11-20T16:26:26;2.60;99.90
20498;DHT22;10407;53.238;10.448;2022-11-20T16:28:54;2.80;99.90
20498;DHT22;10407;53.238;10.448;2022-11-20T16:31:22;2.80;99.90
20498;DHT22;10407;53.238;10.448;2022-11-20T16:33:54;2.70;99.90
20498;DHT22;10407;53.238;10.448;2022-11-20T16:36:24;2.50;99.90
20498;DHT22;10407;53.238;10.448;2022-11-20T16:38:56;2.40;99.90
20498;DHT22;10407;53.238;10.448;2022-11-20T16:41:25;2.40;99.90
20498;DHT22;10407;53.238;10.448;2022-11-20T16:43:55;2.40;99.90
20498;DHT22;10407;53.238;10.448;2022-11-20T16:46:28;1.90;99.90
20498;DHT22;10407;53.238;10.448;2022-11-20T16:48:58;2.20;99.90
20498;DHT22;10407;53.238;10.448;2022-11-20T16:51:27;2.30;99.90
20498;DHT22;10407;53.238;10.448;2022-11-20T16:53:55;2.40;99.90
20498;DHT22;10407;53.238;10.448;2022-11-20T16:56:25;2.30;99.90
20498;DHT22;10407;53.238;10.448;2022-11-20T16:58:55;2.30;99.90
20498;DHT22;10407;53.238;10.448;2022-11-20T17:01:24;2.30;99.90
20498;DHT22;10407;53.238;10.448;2022-11-20T17:04:03;2.40;99.90
20498;DHT22;10407;53.238;10.448;2022-11-20T17:06:33;2.30;99.90
20498;DHT22;10407;53.238;10.448;2022-11-20T17:09:01;2.30;99.90